Time;durP1;ratioP1;P1;durP2;ratioP2;P2;SDS_P1;SDS_P2;PMS_P1;PMS_P2;Temp;Humidity;BMP_temperature;BMP_pressure;BME280_temperature;BME280_humidity;BME280_pressure;Samples;Min_cycle;Max_cycle;Signal;HPM_P1;HPM_P2
2023/04/01 00:01:41;;;;;;;2.25;0.60;;;11.10;63.20;;;6.56;86.35;94548.16;4974744;28;20030;-47
2023/04/01 00:04:07;;;;;;;4.57;0.70;;;11.10;63.60;;;6.54;86.57;94547.63;4972360;28;20393;-51
2023/04/01 00:06:33;;;;;;;2.40;0.73;;;11.00;63.50;;;6.56;87.09;94554.22;4993420;28;20112;-48
2023/04/01 00:08:59;;;;;;;2.28;0.80;;;11.00;63.60;;;6.58;86.29;94561.91;4993914;28;20041;-47
2023/04/01 00:11:27;;;;;;;4.60;0.80;;;11.00;63.70;;;6.57;86.51;94555.03;4983308;28;20034;-47
2023/04/01 00:13:53;;;;;;;3.25;0.70;;;11.00;63.90;;;6.54;85.57;94544.97;4974582;28;20034;-48
2023/04/01 00:16:20;;;;;;;1.70;0.60;;;11.00;63.90;;;6.58;85.75;94560.06;4973598;28;20437;-47
2023/04/01 00:18:47;;;;;;;2.88;0.70;;;11.00;64.00;;;6.58;84.98;94578.59;4974202;28;20034;-49
2023/04/01 00:21:14;;;;;;;4.18;1.05;;;11.00;64.10;;;6.62;83.97;94557.69;4974296;28;20171;-47
2023/04/01 00:23:40;;;;;;;1.88;0.50;;;11.10;64.00;;;6.66;84.42;94564.03;4972317;28;20030;-50
2023/04/01 00:26:06;;;;;;;2.08;0.47;;;11.10;64.00;;;6.67;84.42;94565.59;4974198;28;20026;-47
2023/04/01 00:28:35;;;;;;;2.70;0.77;;;11.10;63.90;;;6.64;83.86;94561.66;4972108;28;20096;-47
2023/04/01 00:31:09;;;;;;;2.08;0.60;;;11.20;63.80;;;6.67;84.38;94574.34;4974253;28;20073;-48
2023/04/01 00:33:35;;;;;;;2.45;0.60;;;11.20;63.80;;;6.71;83.61;94577.28;4971674;28;20070;-48
2023/04/01 00:36:19;;;;;;;3.13;1.00;;;11.20;63.80;;;6.72;84.51;94581.50;4969781;28;20038;-47
2023/04/01 00:38:46;;;;;;;1.52;0.60;;;11.20;63.70;;;6.71;84.05;94569.34;4973062;28;20508;-50
2023/04/01 00:41:15;;;;;;;6.65;1.02;;;11.30;63.70;;;6.70;84.01;94568.50;4964841;28;20640;-50
2023/04/01 00:43:45;;;;;;;2.50;0.40;;;11.30;63.60;;;6.72;84.28;94582.28;4954413;28;20034;-48
2023/04/01 00:46:11;;;;;;;2.95;0.57;;;11.30;63.60;;;6.70;83.47;94579.09;4953897;28;20513;-54
2023/04/01 00:48:46;;;;;;;4.88;0.60;;;11.30;63.50;;;6.76;83.83;94574.59;4973208;28;20107;-47
2023/04/01 00:51:30;;;;;;;6.35;0.73;;;11.30;63.50;;;6.77;83.63;94576.22;4972647;28;20497;-48
2023/04/01 00:54:01;;;;;;;2.15;0.57;;;11.30;63.50;;;6.76;83.26;94579.13;4971615;28;20080;-50
2023/04/01 00:57:02;;;;;;;2.75;0.60;;;11.30;63.40;;;6.76;82.57;94571.16;4973701;28;20385;-47
2023/04/01 00:59:43;;;;;;;3.75;0.60;;;11.40;63.30;;;6.76;82.35;94579.13;4972717;28;20022;-48
2023/04/01 01:02:14;;;;;;;1.85;0.70;;;11.40;63.30;;;6.78;82.31;94574.34;4973514;28;20485;-46
2023/04/01 01:04:40;;;;;;;3.95;0.68;;;11.40;63.10;;;6.80;82.03;94574.88;4972303;28;20026;-47
2023/04/01 01:08:05;;;;;;;3.72;0.70;;;11.40;63.10;;;6.82;81.24;94570.91;4973398;28;20108;-49
2023/04/01 01:10:37;;;;;;;1.55;0.50;;;11.40;63.10;;;6.84;81.99;94571.44;4972471;28;20030;-47
2023/04/01 01:13:43;;;;;;;1.42;0.60;;;11.40;63.00;;;6.83;82.18;94563.75;4973201;28;20022;-47
2023/04/01 01:16:45;;;;;;;2.53;0.47;;;11.40;63.00;;;6.72;81.65;94571.69;4973151;28;20057;-49
2023/04/01 01:20:06;;;;;;;1.38;0.70;;;11.40;62.70;;;6.76;82.00;94571.16;4965632;28;20440;-47
2023/04/01 01:22:57;;;;;;;5.40;0.65;;;11.40;62.70;;;6.72;81.90;94561.13;4972169;28;20022;-47
2023/04/01 01:26:14;;;;;;;4.05;0.50;;;11.40;62.70;;;6.76;81.90;94565.88;4971910;28;20030;-48
2023/04/01 01:29:43;;;;;;;1.35;0.40;;;11.40;62.70;;;6.75;81.59;94561.66;4972216;28;20117;-48
2023/04/01 01:32:57;;;;;;;0.80;0.40;;;11.40;62.70;;;6.67;82.20;94570.91;4972038;28;20034;-47
2023/04/01 01:35:55;;;;;;;0.98;0.40;;;11.40;62.70;;;6.63;82.26;94559.25;4971832;28;20061;-47
2023/04/01 01:38:33;;;;;;;2.17;0.40;;;11.30;62.50;;;6.65;82.82;94568.53;4971447;28;20057;-48
2023/04/01 01:41:05;;;;;;;0.90;0.47;;;11.30;62.60;;;6.65;82.65;94565.09;4965582;28;20019;-49
2023/04/01 01:43:41;;;;;;;2.72;0.60;;;11.30;62.50;;;6.62;82.89;94570.91;4952605;28;20117;-47
2023/04/01 01:46:19;;;;;;;2.00;0.47;;;11.30;62.50;;;6.63;82.48;94562.69;4952371;28;20085;-52
2023/04/01 01:48:50;;;;;;;1.75;0.40;;;11.30;62.60;;;6.66;83.09;94556.88;4961724;28;20514;-47
2023/04/01 01:51:20;;;;;;;1.83;0.50;;;11.30;62.60;;;6.65;82.53;94557.94;4955711;28;20026;-48
2023/04/01 01:53:45;;;;;;;2.30;0.50;;;11.30;62.60;;;6.66;82.64;94566.69;4970760;28;20057;-47
2023/04/01 01:56:13;;;;;;;0.75;0.43;;;11.30;63.40;;;6.63;82.63;94546.03;4972663;28;20065;-49
2023/04/01 01:58:52;;;;;;;2.28;0.50;;;11.30;62.60;;;6.62;82.55;94557.69;4971829;28;20110;-49
2023/04/01 02:01:30;;;;;;;2.70;0.63;;;11.30;62.60;;;6.63;82.63;94544.19;4972695;28;20026;-48
2023/04/01 02:03:59;;;;;;;2.28;0.60;;;11.30;62.70;;;6.65;82.72;94544.72;4970881;28;20030;-48
2023/04/01 02:06:34;;;;;;;2.03;0.50;;;11.30;62.70;;;6.64;82.57;94547.59;4970610;28;20056;-47
2023/04/01 02:09:07;;;;;;;1.58;0.50;;;11.30;62.70;;;6.62;82.45;94545.25;4971442;28;20025;-47
2023/04/01 02:11:55;;;;;;;;;;;11.30;62.70;;;6.65;81.62;94542.06;4971038;28;20030;-48
2023/04/01 02:14:47;;;;;;;3.55;0.70;;;11.20;63.10;;;6.64;81.36;94529.09;4971359;28;20363;-48
2023/04/01 02:17:26;;;;;;;1.60;0.65;;;11.30;62.60;;;6.59;81.22;94539.69;4970058;28;20396;-47
2023/04/01 02:19:59;;;;;;;4.55;0.80;;;11.30;62.30;;;6.61;80.77;94537.56;4972440;28;20344;-47
2023/04/01 02:22:41;;;;;;;2.45;0.80;;;11.30;62.30;;;6.61;80.92;94543.66;4971570;28;20030;-47
2023/04/01 02:25:33;;;;;;;1.48;0.52;;;11.30;62.30;;;6.60;80.53;94546.56;4990507;28;20030;-47
2023/04/01 02:28:03;;;;;;;5.50;0.70;;;11.30;62.20;;;6.63;80.27;94546.03;4991988;28;20081;-48
2023/04/01 02:30:35;;;;;;;2.55;0.60;;;11.30;62.10;;;6.65;80.37;94543.94;4970977;28;20026;-48
2023/04/01 02:33:03;;;;;;;3.90;0.70;;;11.30;62.10;;;6.64;79.94;94532.56;4971222;28;20018;-48
2023/04/01 02:35:30;;;;;;;4.90;0.60;;;11.30;62.00;;;6.65;80.03;94544.72;4970054;28;20081;-48
2023/04/01 02:37:56;;;;;;;2.90;0.80;;;11.30;61.70;;;6.59;78.61;94537.84;4971370;28;20049;-47
2023/04/01 02:40:23;;;;;;;4.07;0.90;;;11.20;61.10;;;6.58;79.03;94544.19;4970156;28;20045;-47
2023/04/01 02:42:49;;;;;;;3.15;0.85;;;11.20;60.60;;;6.58;78.84;94544.19;4972024;28;20036;-47
2023/04/01 02:45:15;;;;;;;1.83;0.80;;;11.20;60.20;;;6.58;78.93;94546.00;4970840;28;20034;-48
2023/04/01 02:47:41;;;;;;;2.88;0.70;;;11.20;60.00;;;6.62;78.83;94539.94;4971084;28;20026;-47
2023/04/01 02:50:09;;;;;;;3.15;1.00;;;11.20;59.90;;;6.60;79.32;94555.28;4972171;28;20039;-47
2023/04/01 02:52:35;;;;;;;2.45;0.57;;;11.20;59.80;;;6.60;78.80;94544.69;4971315;28;20085;-49
2023/04/01 02:55:04;;;;;;;3.33;0.88;;;11.20;60.30;;;6.62;80.24;94542.59;4972052;28;20030;-47
2023/04/01 02:57:30;;;;;;;3.78;0.77;;;11.20;59.70;;;6.62;82.13;94541.81;4972204;28;20033;-50
2023/04/01 02:59:56;;;;;;;7.13;0.90;;;11.20;59.70;;;6.56;82.15;94534.94;4971075;28;20058;-50
2023/04/01 03:02:22;;;;;;;4.13;1.02;;;11.10;59.70;;;6.45;81.90;94521.66;4972370;28;20527;-47
2023/04/01 03:04:47;;;;;;;3.65;0.80;;;11.00;59.80;;;6.40;82.66;94528.84;4971036;28;20033;-47
2023/04/01 03:07:13;;;;;;;4.30;0.60;;;11.00;59.90;;;6.36;82.67;94525.09;4971922;28;20022;-47
2023/04/01 03:09:40;;;;;;;4.63;0.98;;;10.90;60.00;;;6.32;83.36;94526.69;4972002;28;20374;-47
2023/04/01 03:12:07;;;;;;;3.08;0.68;;;10.80;60.00;;;6.29;84.43;94528.00;4971350;28;20053;-47
2023/04/01 03:14:32;;;;;;;4.05;0.82;;;10.80;60.20;;;6.26;83.68;94531.97;4970694;28;20122;-49
2023/04/01 03:16:58;;;;;;;5.65;0.93;;;10.70;60.20;;;6.22;83.61;94535.41;4974412;28;20113;-47
2023/04/01 03:19:24;;;;;;;4.32;0.93;;;10.80;60.40;;;6.13;82.87;94527.19;4975368;28;20445;-47
2023/04/01 03:21:50;;;;;;;1.85;0.60;;;10.70;60.30;;;6.10;82.36;94522.44;4975310;28;20113;-47
2023/04/01 03:24:16;;;;;;;4.38;1.20;;;10.70;60.30;;;6.09;82.14;94542.00;4973951;28;20030;-49
2023/04/01 03:26:41;;;;;;;7.30;1.05;;;10.60;60.40;;;6.09;82.05;94534.06;4975288;28;20433;-47
2023/04/01 03:29:07;;;;;;;5.22;0.80;;;10.60;60.20;;;6.12;82.00;94535.41;4974232;28;20030;-52
2023/04/01 03:31:34;;;;;;;3.20;0.90;;;10.60;60.20;;;6.08;81.93;94537.78;4975224;28;20022;-49
2023/04/01 03:34:00;;;;;;;5.05;1.05;;;10.60;60.20;;;6.06;81.47;94523.22;4974914;28;20501;-47
2023/04/01 03:36:25;;;;;;;4.28;1.13;;;10.60;60.20;;;6.11;82.00;94529.31;4991754;28;20018;-48
2023/04/01 03:38:51;;;;;;;4.65;0.73;;;10.60;60.20;;;6.13;81.33;94518.47;4994550;28;20022;-47
2023/04/01 03:41:19;;;;;;;1.88;0.60;;;10.60;60.10;;;6.15;81.65;94524.31;4992720;28;20018;-47
2023/04/01 03:43:45;;;;;;;5.00;1.02;;;10.70;60.10;;;6.17;81.24;94517.69;4994178;28;20017;-47
2023/04/01 03:46:11;;;;;;;3.33;0.75;;;10.70;60.00;;;6.13;81.16;94510.53;4994057;28;20060;-52
2023/04/01 03:48:37;;;;;;;3.95;0.85;;;10.70;59.90;;;6.14;80.85;94501.53;4974452;28;20060;-47
2023/04/01 03:51:07;;;;;;;4.90;0.85;;;10.70;59.80;;;6.16;80.45;94523.25;4974979;28;20037;-47
2023/04/01 03:53:33;;;;;;;6.72;0.95;;;10.70;59.80;;;6.23;81.33;94524.56;4973996;28;20029;-47
2023/04/01 03:56:05;;;;;;;1.83;0.57;;;10.70;59.80;;;6.22;80.67;94528.28;4974578;28;20033;-48
2023/04/01 03:58:31;;;;;;;7.82;0.88;;;10.70;59.70;;;6.22;80.15;94524.84;4974282;28;20022;-48
2023/04/01 04:00:57;;;;;;;3.67;0.70;;;10.80;59.60;;;6.23;79.80;94529.06;4968416;28;20052;-47
2023/04/01 04:03:23;;;;;;;1.92;0.77;;;10.80;59.60;;;6.25;80.10;94538.31;4963991;28;20365;-47
2023/04/01 04:05:50;;;;;;;3.63;0.68;;;10.80;59.50;;;6.25;79.33;94545.47;4973527;28;20026;-48
2023/04/01 04:08:16;;;;;;;3.08;0.82;;;10.80;59.40;;;6.24;79.67;94534.09;4974425;28;20018;-48
2023/04/01 04:10:44;;;;;;;2.15;0.70;;;10.80;59.30;;;6.29;80.35;94541.22;4973401;28;20036;-49
2023/04/01 04:13:10;;;;;;;4.43;0.95;;;10.80;59.20;;;6.33;81.54;94544.97;4974741;28;20025;-49
2023/04/01 04:15:36;;;;;;;5.07;0.77;;;10.80;59.30;;;6.24;82.24;94536.75;4974553;28;20491;-48
2023/04/01 04:18:02;;;;;;;4.43;0.82;;;10.80;59.40;;;6.25;82.93;94535.69;4973165;28;20030;-47
2023/04/01 04:20:27;;;;;;;3.17;0.80;;;10.70;59.60;;;6.21;83.86;94528.53;4974179;28;20382;-48
2023/04/01 04:22:53;;;;;;;6.25;0.73;;;10.70;59.70;;;6.20;84.61;94533.00;4987971;28;20022;-48
2023/04/01 04:25:19;;;;;;;2.30;0.60;;;10.60;59.80;;;6.08;82.74;94527.19;4974226;28;20026;-47
2023/04/01 04:27:45;;;;;;;7.20;0.60;;;10.60;60.00;;;6.08;83.74;94536.97;4973938;28;20029;-47
2023/04/01 04:30:12;;;;;;;4.75;1.02;;;10.50;60.00;;;6.08;83.02;94529.03;4973319;28;20034;-48
2023/04/01 04:32:37;;;;;;;1.80;0.40;;;10.50;60.20;;;6.11;82.62;94539.09;4974301;28;20489;-48
2023/04/01 04:35:06;;;;;;;2.70;0.93;;;10.50;60.20;;;6.13;81.72;94526.41;4973019;28;20057;-47
2023/04/01 04:37:32;;;;;;;2.58;0.77;;;10.50;60.20;;;6.14;82.14;94542.03;4973995;28;20034;-49
2023/04/01 04:39:58;;;;;;;3.97;0.93;;;10.50;60.30;;;6.13;81.75;94540.41;4973862;28;20018;-49
2023/04/01 04:42:24;;;;;;;3.50;0.95;;;10.50;60.20;;;6.16;81.52;94536.47;4973099;28;20026;-47
2023/04/01 04:44:49;;;;;;;3.47;0.60;;;10.50;60.20;;;6.19;81.38;94526.16;4973801;28;20022;-47
2023/04/01 04:47:15;;;;;;;2.70;0.40;;;10.60;60.20;;;6.20;80.94;94548.88;4973024;28;20015;-47
2023/04/01 04:49:41;;;;;;;2.95;0.60;;;10.50;60.00;;;6.18;80.46;94543.09;4973711;28;20137;-48
2023/04/01 04:52:07;;;;;;;2.38;0.50;;;10.60;60.00;;;6.20;80.13;94534.88;4973845;28;20049;-48
2023/04/01 04:54:33;;;;;;;2.65;0.52;;;10.60;59.90;;;6.19;80.92;94541.22;4972578;28;20033;-48
2023/04/01 04:56:59;;;;;;;1.23;0.40;;;10.60;59.80;;;6.19;81.79;94552.59;4973685;28;20560;-48
2023/04/01 04:59:25;;;;;;;2.22;0.50;;;10.60;59.80;;;6.17;81.94;94557.38;4972924;28;20033;-48
2023/04/01 05:01:50;;;;;;;2.80;0.70;;;10.70;59.80;;;6.14;82.57;94551.78;4973326;28;20030;-48
2023/04/01 05:04:16;;;;;;;2.05;0.65;;;10.70;59.80;;;6.14;82.84;94551.78;4972831;28;20038;-52
2023/04/01 05:06:44;;;;;;;3.80;0.63;;;10.70;59.80;;;5.99;82.35;94555.22;4973321;28;20026;-51
2023/04/01 05:09:11;;;;;;;2.13;0.47;;;10.70;59.80;;;5.96;82.82;94550.44;4970879;28;20048;-48
2023/04/01 05:11:37;;;;;;;3.63;0.80;;;10.60;59.70;;;5.97;83.33;94559.94;4963674;28;20101;-47
2023/04/01 05:14:02;;;;;;;1.85;0.50;;;10.60;59.80;;;5.96;82.98;94575.00;4973269;28;20124;-47
2023/04/01 05:16:29;;;;;;;2.60;0.60;;;10.60;59.80;;;5.91;82.73;94558.31;4972461;28;20101;-47
2023/04/01 05:18:55;;;;;;;2.97;0.40;;;10.50;59.80;;;5.88;83.25;94577.34;4973074;28;20034;-47
2023/04/01 05:21:21;;;;;;;2.03;0.57;;;10.60;59.80;;;5.86;83.74;94577.59;4973248;28;20377;-48
2023/04/01 05:23:47;;;;;;;1.23;0.30;;;10.60;59.70;;;5.86;83.57;94571.50;4971717;28;20240;-49
2023/04/01 05:26:15;;;;;;;1.48;0.60;;;10.60;59.70;;;5.85;83.62;94570.72;4973361;28;20499;-49
2023/04/01 05:28:41;;;;;;;1.45;0.40;;;10.60;59.70;;;5.85;83.43;94576.00;4972205;28;20104;-48
2023/04/01 05:31:08;;;;;;;3.92;0.40;;;10.60;59.70;;;5.87;83.75;94573.91;4973075;28;20029;-47
2023/04/01 05:33:35;;;;;;;1.40;0.52;;;10.60;59.70;;;5.91;84.17;94574.16;4982803;23;20667;-49
2023/04/01 05:36:16;;;;;;;0.98;0.32;;;10.60;59.70;;;5.87;83.86;94579.19;4951758;28;20042;-53
2023/04/01 05:38:45;;;;;;;2.50;0.50;;;10.70;59.70;;;5.88;84.18;94583.41;4952455;28;20031;-49
2023/04/01 05:41:12;;;;;;;1.13;0.43;;;10.70;59.70;;;5.84;85.65;94592.13;4952561;28;20041;-51
2023/04/01 05:43:40;;;;;;;2.60;0.43;;;10.70;59.80;;;5.81;87.11;94596.06;4953516;28;20026;-50
2023/04/01 05:46:06;;;;;;;0.63;0.40;;;10.60;59.80;;;5.85;88.28;94591.84;4953695;28;20027;-52
2023/04/01 05:48:34;;;;;;;1.38;0.43;;;10.60;60.00;;;5.83;89.05;94588.69;4942187;28;20042;-51
2023/04/01 05:51:03;;;;;;;1.00;0.50;;;10.60;60.20;;;5.74;89.03;94591.03;4956626;28;20384;-52
2023/04/01 05:53:29;;;;;;;1.48;0.50;;;10.60;60.30;;;5.71;89.59;94591.53;4949736;28;20022;-52
2023/04/01 05:55:55;;;;;;;2.30;0.52;;;10.50;60.50;;;5.71;89.59;94590.75;4934472;29;20033;-48
2023/04/01 05:58:20;;;;;;;1.83;0.50;;;10.50;60.70;;;5.68;89.17;94591.28;4937485;28;20355;-50
2023/04/01 06:00:46;;;;;;;1.75;0.60;;;10.50;60.90;;;5.77;89.63;94595.00;4940630;28;20034;-51
2023/04/01 06:03:12;;;;;;;2.05;0.70;;;10.50;60.90;;;5.79;89.96;94596.31;4933952;29;20027;-50
2023/04/01 06:05:43;;;;;;;1.23;0.40;;;10.50;60.90;;;5.78;90.11;94591.31;4943360;28;20034;-51
2023/04/01 06:08:18;;;;;;;4.03;0.57;;;10.60;61.20;;;5.83;89.81;94590.50;4953310;28;20019;-50
2023/04/01 06:11:27;;;;;;;2.72;0.65;;;10.70;61.20;;;5.93;89.66;94593.25;4952514;28;20500;-50
2023/04/01 06:14:40;;;;;;;3.45;0.63;;;10.80;61.10;;;5.97;90.61;94596.97;4953077;29;20033;-52
2023/04/01 06:17:43;;;;;;;0.88;0.60;;;10.80;61.20;;;6.00;90.66;94588.50;4951365;29;20106;-52
2023/04/01 06:20:52;;;;;;;2.70;0.90;;;10.80;61.20;;;6.00;89.43;94589.28;4934164;29;20134;-53
2023/04/01 06:24:28;;;;;;;2.05;0.40;;;11.00;61.30;;;6.07;88.88;94572.41;4955007;28;20049;-54
2023/04/01 06:28:02;;;;;;;0.47;0.40;;;11.10;61.10;;;6.22;90.47;94585.66;4947655;28;20046;-51
2023/04/01 06:31:32;;;;;;;3.00;0.65;;;11.20;61.00;;;6.25;89.64;94580.63;4924963;29;20062;-52
2023/04/01 06:34:33;;;;;;;0.60;0.52;;;11.30;60.90;;;6.34;90.36;94586.22;4933601;29;20039;-53
2023/04/01 06:37:43;;;;;;;2.92;0.50;;;11.50;60.80;;;6.41;89.73;94588.59;4934094;29;20031;-52
2023/04/01 06:40:52;;;;;;;2.30;0.60;;;11.50;60.60;;;6.46;89.00;94588.63;4932845;29;20027;-55
2023/04/01 06:44:13;;;;;;;2.10;0.60;;;11.70;60.50;;;6.54;88.38;94585.44;4932722;29;20034;-51
2023/04/01 06:47:22;;;;;;;1.38;0.60;;;11.80;60.40;;;6.83;87.99;94579.63;4933488;29;20043;-50
2023/04/01 06:50:32;;;;;;;0.95;0.43;;;12.00;60.30;;;6.94;85.50;94574.06;4952954;28;20026;-49
2023/04/01 06:53:52;;;;;;;3.08;0.65;;;12.30;60.90;;;7.02;85.41;94580.72;4954788;28;20034;-54
2023/04/01 06:56:26;;;;;;;1.23;0.30;;;12.50;59.60;;;7.09;82.52;94559.25;4955477;28;20037;-54
2023/04/01 06:59:17;;;;;;;0.63;0.40;;;12.60;59.30;;;7.12;82.62;94556.84;4970039;28;20028;-52
2023/04/01 07:01:59;;;;;;;0.52;0.38;;;12.70;59.00;;;7.27;81.93;94558.69;4955268;28;20031;-54
2023/04/01 07:04:43;;;;;;;1.25;0.40;;;12.80;58.60;;;7.25;80.35;94560.81;4954315;28;20040;-52
2023/04/01 07:07:34;;;;;;;3.55;0.52;;;13.00;58.00;;;7.50;80.21;94565.25;4955172;28;20026;-54
2023/04/01 07:10:19;;;;;;;0.60;0.40;;;13.10;57.70;;;7.47;78.67;94575.59;4947155;28;20026;-52
2023/04/01 07:13:00;;;;;;;2.03;0.57;;;13.10;57.50;;;7.45;79.13;94573.19;4956024;28;20026;-52
2023/04/01 07:15:41;;;;;;;0.93;0.30;;;13.00;57.10;;;7.40;79.02;94578.53;4970967;28;20116;-50
2023/04/01 07:18:23;;;;;;;2.22;0.40;;;12.90;57.20;;;7.30;78.70;94567.94;4955348;28;20402;-53
2023/04/01 07:20:53;;;;;;;0.75;0.50;;;12.80;57.10;;;7.31;78.80;94567.69;4955122;28;20120;-51
2023/04/01 07:23:44;;;;;;;2.65;0.35;;;12.80;57.00;;;7.29;78.38;94569.78;4953643;28;20027;-55
2023/04/01 07:26:22;;;;;;;1.30;0.30;;;12.80;56.90;;;7.34;79.26;94574.31;4954997;28;20508;-51
2023/04/01 07:28:52;;;;;;;0.50;0.20;;;12.70;56.80;;;7.37;80.89;94587.81;4954921;28;20019;-54
2023/04/01 07:31:57;;;;;;;1.33;0.50;;;12.70;57.00;;;7.19;80.63;94585.72;4955970;28;20030;-51
2023/04/01 07:34:26;;;;;;;0.82;0.40;;;12.70;57.10;;;7.14;81.88;94591.78;4950537;28;20034;-50
2023/04/01 07:37:37;;;;;;;0.70;0.40;;;12.60;57.20;;;7.01;83.10;94589.69;4938632;28;20030;-55
2023/04/01 07:40:15;;;;;;;1.00;0.40;;;12.50;57.60;;;6.92;84.88;94593.94;4952337;28;20532;-53
2023/04/01 07:43:03;;;;;;;1.75;0.40;;;12.40;57.70;;;6.92;85.70;94594.72;4935753;28;20034;-52
2023/04/01 07:45:57;;;;;;;0.88;0.40;;;12.30;58.00;;;6.86;84.57;94600.28;4937503;28;20027;-49
2023/04/01 07:48:58;;;;;;;1.73;0.30;;;12.30;58.20;;;6.98;87.60;94603.47;4937433;28;20505;-49
2023/04/01 07:52:03;;;;;;;0.88;0.30;;;12.30;58.40;;;6.93;86.23;94606.91;4938984;28;20113;-49
2023/04/01 07:54:53;;;;;;;0.45;0.35;;;12.30;58.60;;;6.99;87.69;94605.06;4946195;28;20026;-50
2023/04/01 07:58:12;;;;;;;0.50;0.30;;;12.30;58.80;;;6.98;87.24;94608.75;4948548;28;20058;-49
2023/04/01 08:01:04;;;;;;;1.42;0.47;;;12.30;59.00;;;7.05;88.82;94616.44;4934796;28;20022;-49
2023/04/01 08:04:43;;;;;;;1.10;0.32;;;12.30;59.20;;;7.00;88.49;94625.19;4936196;29;20027;-53
2023/04/01 08:07:44;;;;;;;0.90;0.30;;;12.30;59.40;;;6.97;89.03;94619.63;4935986;29;20039;-52
2023/04/01 08:10:33;;;;;;;1.33;0.40;;;12.30;59.50;;;7.05;89.09;94616.44;4952860;28;20035;-52
2023/04/01 08:13:52;;;;;;;2.55;0.50;;;12.40;59.60;;;7.05;90.26;94617.25;4936462;29;20058;-51
2023/04/01 08:16:50;;;;;;;1.67;0.65;;;12.40;59.70;;;6.94;88.64;94621.75;4936155;29;20022;-54
2023/04/01 08:19:27;;;;;;;0.40;0.30;;;12.30;59.70;;;6.95;89.98;94620.66;4945627;28;20481;-49
2023/04/01 08:22:04;;;;;;;1.90;0.35;;;12.20;60.00;;;6.92;89.91;94615.09;4954713;28;20113;-55
2023/04/01 08:24:43;;;;;;;1.75;0.40;;;12.20;60.20;;;6.89;90.08;94616.47;4954003;28;20035;-49
2023/04/01 08:27:23;;;;;;;0.70;0.35;;;12.10;60.30;;;6.92;91.38;94613.25;4946670;28;20022;-49
2023/04/01 08:30:15;;;;;;;0.30;0.30;;;12.10;60.40;;;6.89;91.31;94621.75;4973463;28;20075;-50
2023/04/01 08:33:31;;;;;;;0.63;0.40;;;12.10;60.70;;;6.87;90.79;94612.47;4974065;28;20113;-49
2023/04/01 08:36:31;;;;;;;1.75;0.50;;;12.10;60.80;;;6.90;89.86;94622.53;4939805;28;20043;-54
2023/04/01 08:39:17;;;;;;;0.63;0.43;;;12.10;60.70;;;6.90;90.32;94618.03;4950722;28;20038;-52
2023/04/01 08:42:36;;;;;;;0.68;0.47;;;12.10;60.80;;;6.88;91.68;94628.09;4965015;28;20033;-52
2023/04/01 08:45:38;;;;;;;0.65;0.22;;;12.00;60.90;;;6.82;90.52;94623.06;4973664;28;20034;-50
2023/04/01 08:48:45;;;;;;;0.75;0.30;;;11.90;61.00;;;6.78;91.34;94625.44;4972776;28;20034;-53
2023/04/01 08:51:46;;;;;;;1.38;0.52;;;11.80;61.20;;;6.81;92.41;94624.91;4972431;28;20052;-53
2023/04/01 08:54:59;;;;;;;0.30;0.30;;;11.80;61.60;;;6.89;93.45;94621.75;4971876;28;20053;-51
2023/04/01 08:58:01;;;;;;;0.60;0.60;;;11.80;61.80;;;6.88;93.50;94622.78;4973721;28;20026;-50
2023/04/01 09:01:24;;;;;;;2.70;0.47;;;11.70;62.00;;;6.89;94.33;94618.28;4971754;28;20495;-50
2023/04/01 09:04:09;;;;;;;0.30;0.30;;;11.80;62.20;;;6.85;92.82;94618.03;4973599;28;20053;-51
2023/04/01 09:06:59;;;;;;;0.38;0.38;;;11.70;62.10;;;6.80;93.04;94625.97;4972414;28;20026;-50
2023/04/01 09:09:47;;;;;;;0.65;0.38;;;11.80;62.40;;;6.80;94.51;94615.41;4969341;28;20421;-51
2023/04/01 09:12:56;;;;;;;0.47;0.40;;;11.80;62.30;;;6.66;93.60;94625.69;4968021;28;20048;-50
2023/04/01 09:16:21;;;;;;;2.70;0.43;;;11.80;62.30;;;6.59;94.56;94624.38;4972195;28;20026;-52
2023/04/01 09:19:27;;;;;;;1.23;0.40;;;11.80;62.30;;;6.53;95.46;94626.19;4962867;28;20030;-49
2023/04/01 09:22:31;;;;;;;8.80;1.13;;;11.80;62.30;;;6.59;95.79;94627.81;4973009;28;20022;-52
2023/04/01 09:25:31;;;;;;;0.70;0.40;;;11.80;62.30;;;6.69;96.31;94629.66;4947757;28;20058;-50
2023/04/01 09:28:26;;;;;;;0.43;0.30;;;11.90;62.50;;;6.66;95.71;94630.19;4952991;28;20034;-51
2023/04/01 09:31:50;;;;;;;2.17;0.32;;;12.00;62.60;;;6.72;96.22;94632.56;4973041;28;20022;-54
2023/04/01 09:34:41;;;;;;;;;;;12.00;62.60;;;6.74;95.31;94629.69;4973339;28;20451;-51
2023/04/01 09:37:38;;;;;;;0.40;0.40;;;12.10;62.30;;;6.84;96.01;94636.84;4953716;28;19906;-50
2023/04/01 09:40:21;;;;;;;1.30;0.50;;;12.20;62.50;;;6.89;95.67;94632.34;4966202;28;20165;-54
2023/04/01 09:43:26;;;;;;;1.02;0.55;;;12.30;62.40;;;6.95;95.54;94643.72;4972965;28;20025;-50
2023/04/01 09:46:33;;;;;;;0.52;0.50;;;12.40;62.40;;;7.05;95.07;94634.97;4972865;28;20445;-52
2023/04/01 09:49:24;;;;;;;0.80;0.43;;;12.50;62.60;;;7.11;94.14;94639.22;4944525;28;20113;-52
2023/04/01 09:52:07;;;;;;;0.57;0.50;;;12.60;62.40;;;7.12;92.94;94636.31;4953561;28;20034;-52
2023/04/01 09:55:55;;;;;;;0.55;0.50;;;12.70;62.20;;;7.41;93.06;94630.44;4970078;28;20022;-55
2023/04/01 09:59:38;;;;;;;1.42;0.50;;;13.00;61.90;;;7.59;90.54;94629.09;4979276;28;20455;-54
2023/04/01 10:02:28;;;;;;;1.85;0.50;;;13.30;61.30;;;7.93;91.65;94625.81;4958015;28;20026;-52
2023/04/01 10:06:00;;;;;;;0.90;0.70;;;13.60;61.20;;;8.01;89.77;94631.34;4965641;28;20034;-56
2023/04/01 10:09:25;;;;;;;0.75;0.50;;;13.90;60.70;;;7.97;86.85;94622.34;4942211;28;20070;-54
2023/04/01 10:12:08;;;;;;;1.65;0.40;;;14.10;60.00;;;8.14;88.92;94626.53;4964151;28;20022;-50
2023/04/01 10:15:30;;;;;;;0.40;0.40;;;14.30;59.70;;;8.26;84.12;94624.34;4965844;28;20076;-50
2023/04/01 10:18:04;;;;;;;1.05;0.60;;;14.40;59.30;;;8.45;85.46;94633.31;4961173;28;20030;-53
2023/04/01 10:21:45;;;;;;;0.65;0.50;;;14.60;59.00;;;8.50;86.15;94625.31;4972517;28;20022;-54
2023/04/01 10:25:20;;;;;;;0.50;0.40;;;14.70;58.80;;;8.40;85.25;94633.34;4971764;28;20437;-56
2023/04/01 10:28:44;;;;;;;0.55;0.45;;;14.60;58.50;;;8.49;87.38;94625.59;4976323;28;20049;-55
2023/04/01 10:32:02;;;;;;;0.40;0.40;;;14.50;58.50;;;8.51;86.90;94631.44;4957031;28;20033;-50
2023/04/01 10:35:36;;;;;;;0.70;0.50;;;14.60;58.60;;;8.44;84.79;94639.69;4956687;28;20062;-54
2023/04/01 10:39:21;;;;;;;1.77;0.50;;;14.80;58.30;;;8.57;84.06;94617.84;4975329;28;20022;-52
2023/04/01 10:42:35;;;;;;;1.10;0.60;;;15.00;57.90;;;8.75;83.15;94619.06;4934621;29;20043;-54
2023/04/01 10:45:35;;;;;;;0.43;0.43;;;15.20;57.50;;;8.95;82.74;94627.94;4975914;28;20496;-50
2023/04/01 10:48:31;;;;;;;0.93;0.40;;;15.50;57.20;;;8.91;82.74;94622.41;4973729;28;20030;-54
2023/04/01 10:51:45;;;;;;;0.60;0.40;;;15.70;56.80;;;9.04;82.89;94627.09;4974928;28;20109;-50
2023/04/01 10:55:04;;;;;;;0.80;0.50;;;15.90;56.50;;;9.06;82.90;94620.69;4974726;28;20388;-54
2023/04/01 10:58:22;;;;;;;0.65;0.50;;;16.00;56.20;;;9.28;82.43;94623.72;4975173;28;20461;-52
2023/04/01 11:01:34;;;;;;;1.77;0.68;;;16.20;55.80;;;9.21;80.46;94625.88;4975610;28;20018;-51
2023/04/01 11:05:06;;;;;;;0.43;0.35;;;16.30;55.50;;;9.36;81.44;94612.47;4975571;28;20062;-51
2023/04/01 11:07:55;;;;;;;1.20;0.70;;;16.30;55.20;;;9.58;80.13;94622.63;4974976;28;20396;-50
2023/04/01 11:10:58;;;;;;;0.90;0.40;;;16.40;55.20;;;9.66;79.35;94622.03;4963729;28;20046;-49
2023/04/01 11:14:15;;;;;;;0.50;0.50;;;16.50;55.00;;;9.69;77.38;94610.03;4956294;28;20473;-54
2023/04/01 11:17:31;;;;;;;0.40;0.40;;;16.60;54.70;;;9.70;76.88;94611.59;4955791;28;20409;-54
2023/04/01 11:20:35;;;;;;;0.95;0.45;;;16.70;54.20;;;9.40;75.20;94610.03;4951080;28;20125;-55
2023/04/01 11:23:53;;;;;;;0.40;0.40;;;16.70;53.30;;;9.57;77.38;94613.06;4959650;28;20058;-52
2023/04/01 11:26:56;;;;;;;0.70;0.40;;;16.70;53.10;;;9.62;77.73;94636.13;4955946;28;20039;-52
2023/04/01 11:30:00;;;;;;;0.60;0.50;;;16.70;53.10;;;9.61;75.59;94623.94;4960927;28;20022;-54
2023/04/01 11:36:59;;;;;;;1.33;0.52;;;16.40;53.30;;;9.30;79.07;94631.41;4979240;28;20508;-49
2023/04/01 11:40:00;;;;;;;1.55;0.60;;;16.30;53.10;;;9.26;79.50;94615.22;4977477;28;20046;-50
2023/04/01 11:42:55;;;;;;;1.33;0.57;;;16.10;53.50;;;9.13;81.38;94629.94;4993598;28;20076;-51
2023/04/01 11:46:05;;;;;;;1.15;0.60;;;15.90;53.90;;;9.25;81.62;94627.72;4994563;28;20045;-50